Time;durP1;ratioP1;P1;durP2;ratioP2;P2;SDS_P1;SDS_P2;PMS_P1;PMS_P2;Temp;Humidity;BMP_temperature;BMP_pressure;BME280_temperature;BME280_humidity;BME280_pressure;Samples;Min_cycle;Max_cycle;Signal;HPM_P1;HPM_P2
2023/03/31 00:01:29;;;;;;;28.08;3.55;;;10.70;99.90;;;;;;4967888;28;20129;-59
2023/03/31 00:04:00;;;;;;;15.82;2.47;;;10.50;99.90;;;;;;4967922;28;20580;-59
2023/03/31 00:06:27;;;;;;;20.63;3.03;;;10.40;99.90;;;;;;4968017;28;20038;-59
2023/03/31 00:08:53;;;;;;;25.88;3.85;;;10.30;99.90;;;;;;4968142;28;20035;-59
2023/03/31 00:11:20;;;;;;;20.38;3.60;;;10.70;99.90;;;;;;4967633;28;20046;-59
2023/03/31 00:13:46;;;;;;;16.40;1.88;;;10.90;99.90;;;;;;4967791;28;20747;-59
2023/03/31 00:16:12;;;;;;;24.58;3.83;;;10.70;99.90;;;;;;4967495;28;20177;-59
2023/03/31 00:18:46;;;;;;;14.75;2.85;;;10.50;99.90;;;;;;4967232;28;20077;-59
2023/03/31 00:21:23;;;;;;;21.08;2.10;;;10.40;99.90;;;;;;4966853;28;20775;-58
2023/03/31 00:23:49;;;;;;;17.75;2.95;;;10.50;99.90;;;;;;4967785;28;20097;-59
2023/03/31 00:26:15;;;;;;;26.10;4.75;;;10.50;99.90;;;;;;4967800;28;20068;-59
2023/03/31 00:28:41;;;;;;;23.60;3.65;;;10.30;99.90;;;;;;4971506;28;20513;-59
2023/03/31 00:31:06;;;;;;;20.55;4.00;;;10.60;99.90;;;;;;4971679;28;20085;-59
2023/03/31 00:33:32;;;;;;;14.68;2.50;;;10.10;99.90;;;;;;4971502;28;20035;-59
2023/03/31 00:36:00;;;;;;;22.98;2.33;;;10.40;99.90;;;;;;4971518;28;20089;-59
2023/03/31 00:38:28;;;;;;;23.70;2.63;;;10.00;99.90;;;;;;4971562;28;20489;-59
2023/03/31 00:40:55;;;;;;;15.68;2.17;;;9.90;99.90;;;;;;4971609;28;20051;-59
2023/03/31 00:43:32;;;;;;;15.93;2.40;;;9.90;99.90;;;;;;4971324;28;20061;-59
2023/03/31 00:46:16;;;;;;;21.83;3.97;;;9.90;99.90;;;;;;4971380;28;20142;-59
2023/03/31 00:48:56;;;;;;;14.57;2.13;;;9.50;99.90;;;;;;4971060;28;20102;-59
2023/03/31 00:51:24;;;;;;;15.15;2.75;;;9.50;99.90;;;;;;4970460;28;20057;-59
2023/03/31 00:53:58;;;;;;;17.77;2.38;;;9.50;99.90;;;;;;4971643;28;20102;-59
2023/03/31 00:56:27;;;;;;;15.25;2.83;;;9.50;99.90;;;;;;4971164;28;20097;-59
2023/03/31 00:58:58;;;;;;;23.58;3.72;;;9.60;99.90;;;;;;4971020;28;20043;-59
2023/03/31 01:01:25;;;;;;;26.05;4.70;;;9.30;99.90;;;;;;4970821;28;20038;-59
2023/03/31 01:03:52;;;;;;;18.17;2.88;;;9.30;99.90;;;;;;4970886;28;20133;-59
2023/03/31 01:06:22;;;;;;;18.50;2.28;;;10.40;99.90;;;;;;4970549;28;20437;-58
2023/03/31 01:08:50;;;;;;;19.67;3.05;;;9.10;99.90;;;;;;4971263;28;20082;-59
2023/03/31 01:11:19;;;;;;;15.20;2.20;;;9.00;99.90;;;;;;4970777;28;20049;-59
2023/03/31 01:13:48;;;;;;;13.05;2.47;;;8.90;99.90;;;;;;4971252;28;20046;-59
2023/03/31 01:16:14;;;;;;;17.33;2.60;;;9.10;99.90;;;;;;4970477;28;20046;-59
2023/03/31 01:18:45;;;;;;;15.68;2.60;;;8.50;99.90;;;;;;4970734;28;20718;-59
2023/03/31 01:21:29;;;;;;;20.75;2.47;;;8.40;99.90;;;;;;4970807;28;20082;-59
2023/03/31 01:24:07;;;;;;;16.27;2.50;;;8.40;99.90;;;;;;4970986;28;20057;-58
2023/03/31 01:26:45;;;;;;;13.02;1.95;;;8.30;99.90;;;;;;4970653;28;20045;-58
2023/03/31 01:29:29;;;;;;;24.33;3.33;;;8.30;99.90;;;;;;4971111;28;20437;-58
2023/03/31 01:32:32;;;;;;;27.70;2.78;;;8.20;99.90;;;;;;4970792;28;20045;-58
2023/03/31 01:35:25;;;;;;;17.15;2.22;;;8.20;99.90;;;;;;4971163;28;20062;-58
2023/03/31 01:38:27;;;;;;;21.80;2.40;;;8.10;99.90;;;;;;4971095;28;20774;-58
2023/03/31 01:41:17;;;;;;;19.08;2.67;;;8.00;99.90;;;;;;4971167;28;20126;-59
2023/03/31 01:43:58;;;;;;;13.77;1.73;;;8.30;99.90;;;;;;4971010;28;20134;-59
2023/03/31 01:46:36;;;;;;;22.17;3.53;;;8.00;99.90;;;;;;4969726;28;20051;-59
2023/03/31 01:49:30;;;;;;;23.65;3.03;;;8.70;99.90;;;;;;4970735;28;20400;-59
2023/03/31 01:52:21;;;;;;;16.00;2.67;;;8.00;99.90;;;;;;4970428;28;20497;-59
2023/03/31 01:55:08;;;;;;;22.52;3.08;;;8.00;99.90;;;;;;4970127;28;20047;-59
2023/03/31 01:58:06;;;;;;;24.85;2.30;;;8.30;99.90;;;;;;4969997;28;20565;-59
2023/03/31 02:00:38;;;;;;;26.42;3.58;;;8.00;99.90;;;;;;4968396;28;20063;-59
2023/03/31 02:03:08;;;;;;;;;;;8.30;99.90;;;;;;4970395;28;20039;-59
2023/03/31 02:05:49;;;;;;;26.33;2.50;;;8.00;99.90;;;;;;4969794;28;20004;-59
2023/03/31 02:08:47;;;;;;;16.85;3.38;;;8.00;99.90;;;;;;4969839;28;20046;-59
2023/03/31 02:11:13;;;;;;;23.70;3.50;;;8.50;99.90;;;;;;4972695;28;20791;-59
2023/03/31 02:13:43;;;;;;;18.80;2.50;;;8.00;99.90;;;;;;4969628;28;20043;-59
2023/03/31 02:16:17;;;;;;;15.85;2.22;;;8.60;99.90;;;;;;4969615;28;20509;-59
2023/03/31 02:18:45;;;;;;;16.63;2.22;;;8.40;99.90;;;;;;4968947;28;20579;-59
2023/03/31 02:21:13;;;;;;;21.02;3.88;;;8.80;99.90;;;;;;4969501;28;20082;-59
2023/03/31 02:23:40;;;;;;;16.55;2.20;;;8.90;99.90;;;;;;4969561;28;20073;-59
2023/03/31 02:26:26;;;;;;;27.15;3.17;;;8.50;99.90;;;;;;4969701;28;20051;-59
2023/03/31 02:28:52;;;;;;;19.85;2.35;;;8.50;99.90;;;;;;4969537;28;20038;-59
2023/03/31 02:31:50;;;;;;;23.42;3.60;;;8.40;99.90;;;;;;4969770;28;20458;-59
2023/03/31 02:34:16;;;;;;;12.63;2.33;;;8.10;99.90;;;;;;4970444;28;20122;-59
2023/03/31 02:36:44;;;;;;;18.70;2.35;;;8.00;99.90;;;;;;4969766;28;20045;-59
2023/03/31 02:39:24;;;;;;;19.25;3.38;;;8.20;99.90;;;;;;4969536;28;20501;-59
2023/03/31 02:41:50;;;;;;;21.45;3.10;;;8.50;99.90;;;;;;4969870;28;20064;-59
2023/03/31 02:44:16;;;;;;;16.60;3.58;;;8.70;99.90;;;;;;4970068;28;20485;-59
2023/03/31 02:46:43;;;;;;;12.23;2.92;;;8.60;99.90;;;;;;4969285;28;20067;-59
2023/03/31 02:49:10;;;;;;;22.52;3.50;;;8.90;99.90;;;;;;4969132;28;20051;-59
2023/03/31 02:51:55;;;;;;;18.63;2.67;;;8.80;99.90;;;;;;4969039;28;20043;-59
2023/03/31 02:54:45;;;;;;;14.55;2.97;;;8.20;99.90;;;;;;4969660;28;20466;-59
2023/03/31 02:57:31;;;;;;;9.88;2.75;;;8.80;99.90;;;;;;4983673;28;20054;-59
2023/03/31 03:00:13;;;;;;;15.90;3.58;;;8.40;99.90;;;;;;4969031;28;20058;-59
2023/03/31 03:03:06;;;;;;;13.23;3.42;;;8.50;99.90;;;;;;4969380;28;20053;-59
2023/03/31 03:05:49;;;;;;;14.95;3.08;;;8.50;99.90;;;;;;4969366;28;20054;-59
2023/03/31 03:08:26;;;;;;;18.20;3.80;;;8.70;99.90;;;;;;4969335;28;20054;-59
2023/03/31 03:11:06;;;;;;;17.08;3.05;;;8.70;99.90;;;;;;4983614;28;20474;-59
2023/03/31 03:13:35;;;;;;;15.32;3.92;;;8.90;99.90;;;;;;4969118;28;20039;-59
2023/03/31 03:16:26;;;;;;;16.08;3.22;;;8.90;99.90;;;;;;4969049;28;20521;-59
2023/03/31 03:18:59;;;;;;;18.42;4.05;;;8.80;99.90;;;;;;4969219;28;20039;-59
2023/03/31 03:21:25;;;;;;;12.48;3.72;;;8.40;99.90;;;;;;4968748;28;20085;-59
2023/03/31 03:23:51;;;;;;;15.43;3.20;;;8.90;99.90;;;;;;4969285;28;20481;-59
2023/03/31 03:26:22;;;;;;;14.90;2.97;;;8.90;99.90;;;;;;4969144;28;20054;-59
2023/03/31 03:28:49;;;;;;;16.15;3.53;;;8.80;99.90;;;;;;4968257;28;20476;-59
2023/03/31 03:31:16;;;;;;;13.82;3.33;;;9.20;99.90;;;;;;4968713;28;20138;-59
2023/03/31 03:33:42;;;;;;;16.85;3.08;;;9.10;99.90;;;;;;4969212;28;20051;-59
2023/03/31 03:36:08;;;;;;;16.48;3.65;;;8.90;99.90;;;;;;4969605;28;20039;-59
2023/03/31 03:38:35;;;;;;;12.52;3.25;;;8.60;99.90;;;;;;4969579;28;20050;-59
2023/03/31 03:41:01;;;;;;;10.85;2.65;;;9.00;99.90;;;;;;4968940;28;20113;-59
2023/03/31 03:43:27;;;;;;;11.50;3.05;;;9.00;99.90;;;;;;4969379;28;20489;-59
2023/03/31 03:45:52;;;;;;;15.82;3.63;;;9.10;99.90;;;;;;4968959;28;20409;-59
2023/03/31 03:48:18;;;;;;;13.05;3.65;;;9.30;99.90;;;;;;4967905;28;20057;-59
2023/03/31 03:50:47;;;;;;;16.42;4.07;;;9.40;99.90;;;;;;4968565;28;20164;-59
2023/03/31 03:53:14;;;;;;;10.32;3.50;;;9.30;99.90;;;;;;4968659;28;20050;-59
2023/03/31 03:55:40;;;;;;;13.50;3.50;;;9.30;99.90;;;;;;4968191;28;20437;-59
2023/03/31 03:58:06;;;;;;;16.67;4.38;;;9.30;99.90;;;;;;4967976;28;20050;-59
2023/03/31 04:00:32;;;;;;;15.05;3.22;;;9.20;99.90;;;;;;4968172;28;20046;-59
2023/03/31 04:02:58;;;;;;;15.23;3.95;;;9.00;99.90;;;;;;4967047;28;20125;-59
2023/03/31 04:05:24;;;;;;;13.18;3.28;;;9.20;99.90;;;;;;4968414;28;20916;-59
2023/03/31 04:07:49;;;;;;;11.60;3.47;;;9.20;99.90;;;;;;4967534;28;20397;-59
2023/03/31 04:10:15;;;;;;;14.10;4.57;;;9.20;99.90;;;;;;4968471;28;20117;-59
2023/03/31 04:12:41;;;;;;;11.07;4.07;;;8.80;99.90;;;;;;4967932;28;20038;-59
2023/03/31 04:15:07;;;;;;;16.10;3.92;;;8.80;99.90;;;;;;4968094;28;20054;-59
2023/03/31 04:17:33;;;;;;;15.27;4.28;;;8.80;99.90;;;;;;4967645;28;20563;-59
2023/03/31 04:20:04;;;;;;;14.32;3.38;;;9.30;99.90;;;;;;4967423;28;20050;-59
2023/03/31 04:22:34;;;;;;;14.15;3.60;;;8.80;99.90;;;;;;4968347;28;20481;-59
2023/03/31 04:25:13;;;;;;;15.93;3.80;;;8.90;99.90;;;;;;4968351;28;20106;-59
2023/03/31 04:27:45;;;;;;;8.77;3.20;;;8.80;99.90;;;;;;4968159;28;20054;-59
2023/03/31 04:30:21;;;;;;;10.95;2.92;;;9.40;99.90;;;;;;4968165;28;20093;-59
2023/03/31 04:32:53;;;;;;;10.38;3.35;;;9.40;99.90;;;;;;4968028;28;20050;-59
2023/03/31 04:35:21;;;;;;;13.10;3.80;;;8.90;99.90;;;;;;4967980;28;20481;-59
2023/03/31 04:37:51;;;;;;;11.43;4.32;;;9.80;99.90;;;;;;4967228;28;20082;-59
2023/03/31 04:40:17;;;;;;;13.77;3.83;;;9.30;99.90;;;;;;4967725;28;20039;-59
2023/03/31 04:42:44;;;;;;;13.07;4.20;;;9.20;99.90;;;;;;4967649;28;20363;-59
2023/03/31 04:45:11;;;;;;;14.57;5.88;;;9.10;99.90;;;;;;4967871;28;20047;-59
2023/03/31 04:47:37;;;;;;;9.50;3.63;;;8.90;99.90;;;;;;4967736;28;20055;-59
2023/03/31 04:50:03;;;;;;;17.52;4.25;;;9.20;99.90;;;;;;4967677;28;20475;-59
2023/03/31 04:52:29;;;;;;;12.57;4.10;;;8.80;99.90;;;;;;4967384;28;20093;-59
2023/03/31 04:54:54;;;;;;;13.35;4.93;;;9.20;99.90;;;;;;4967119;28;20039;-59
2023/03/31 04:57:20;;;;;;;14.95;4.57;;;9.50;99.90;;;;;;4967401;28;20086;-59
2023/03/31 04:59:46;;;;;;;14.38;4.45;;;8.80;99.90;;;;;;4967768;28;20049;-59
2023/03/31 05:02:11;;;;;;;15.80;4.18;;;9.30;99.90;;;;;;4967679;28;20054;-59
2023/03/31 05:04:37;;;;;;;16.55;5.07;;;9.10;99.90;;;;;;4968121;28;20051;-59
2023/03/31 05:07:03;;;;;;;20.88;5.32;;;9.10;99.90;;;;;;4967774;28;20050;-59
2023/03/31 05:09:29;;;;;;;12.32;4.45;;;9.30;99.90;;;;;;4967659;28;20496;-59
2023/03/31 05:11:56;;;;;;;14.73;5.10;;;9.30;99.90;;;;;;4967639;28;20043;-59
2023/03/31 05:14:22;;;;;;;20.65;4.55;;;9.20;99.90;;;;;;4970256;28;20039;-59
2023/03/31 05:16:47;;;;;;;16.48;4.80;;;8.80;99.90;;;;;;4970855;28;20098;-59
2023/03/31 05:19:13;;;;;;;19.05;5.82;;;9.20;99.90;;;;;;4970126;28;20051;-59
2023/03/31 05:21:39;;;;;;;19.73;5.30;;;9.10;99.90;;;;;;4970419;28;20053;-59
2023/03/31 05:24:05;;;;;;;18.42;5.22;;;9.10;99.90;;;;;;4970723;28;20045;-59
2023/03/31 05:26:30;;;;;;;17.50;5.45;;;8.80;99.90;;;;;;4971357;28;20038;-59
2023/03/31 05:28:56;;;;;;;18.02;5.07;;;9.20;99.90;;;;;;4971397;28;20849;-59
2023/03/31 05:31:22;;;;;;;21.80;6.40;;;9.30;99.90;;;;;;4971240;28;20106;-59
2023/03/31 05:33:48;;;;;;;14.55;4.90;;;8.80;99.90;;;;;;4970570;28;20050;-59
2023/03/31 05:36:16;;;;;;;22.27;6.07;;;9.50;99.90;;;;;;4970552;28;20093;-59
2023/03/31 05:38:42;;;;;;;16.98;6.28;;;8.90;99.90;;;;;;4970732;28;20043;-59
2023/03/31 05:41:09;;;;;;;24.70;5.78;;;9.40;99.90;;;;;;4970627;28;20055;-59
2023/03/31 05:43:36;;;;;;;20.40;4.90;;;9.30;99.90;;;;;;4970852;28;20042;-59
2023/03/31 05:46:02;;;;;;;15.07;5.32;;;9.20;99.90;;;;;;4970547;28;20050;-59
2023/03/31 05:48:28;;;;;;;17.25;4.88;;;9.20;99.90;;;;;;4970238;28;20063;-59
2023/03/31 05:50:57;;;;;;;22.25;5.70;;;9.30;99.90;;;;;;4970065;28;20046;-59
2023/03/31 05:53:24;;;;;;;18.13;5.32;;;9.30;99.90;;;;;;4970204;28;20082;-59
2023/03/31 05:56:00;;;;;;;22.27;5.93;;;9.20;99.90;;;;;;4970408;28;20043;-59
2023/03/31 05:58:26;;;;;;;23.40;6.03;;;9.10;99.90;;;;;;4985576;28;20077;-59
2023/03/31 06:01:06;;;;;;;20.48;6.50;;;9.30;99.90;;;;;;4970006;28;20692;-59
2023/03/31 06:03:34;;;;;;;19.70;5.72;;;9.00;99.90;;;;;;4970319;28;20117;-59
2023/03/31 06:06:00;;;;;;;15.00;5.97;;;9.40;99.90;;;;;;4970173;28;20149;-59
2023/03/31 06:08:27;;;;;;;15.45;6.05;;;9.30;99.90;;;;;;4969956;28;20046;-59
2023/03/31 06:10:53;;;;;;;16.88;5.43;;;9.40;99.90;;;;;;4970334;28;20102;-59
2023/03/31 06:13:19;;;;;;;20.13;6.35;;;9.40;99.90;;;;;;4970303;28;20042;-59
2023/03/31 06:15:53;;;;;;;25.58;6.88;;;9.60;99.90;;;;;;4970204;28;20038;-59
2023/03/31 06:18:19;;;;;;;20.10;5.03;;;9.50;99.90;;;;;;4969618;28;20057;-59
2023/03/31 06:20:44;;;;;;;15.70;5.45;;;9.60;99.90;;;;;;4969131;28;20485;-59
2023/03/31 06:23:10;;;;;;;17.08;5.07;;;9.60;99.90;;;;;;4969786;28;20050;-59
2023/03/31 06:25:37;;;;;;;18.27;5.20;;;9.50;99.90;;;;;;4968944;28;20049;-59
2023/03/31 06:28:05;;;;;;;16.63;4.93;;;9.40;99.90;;;;;;4970015;28;20150;-59
2023/03/31 06:30:30;;;;;;;23.30;6.63;;;9.00;99.90;;;;;;4969834;28;20101;-59
2023/03/31 06:32:56;;;;;;;16.08;4.25;;;9.60;99.90;;;;;;4969515;28;20038;-60
2023/03/31 06:35:22;;;;;;;14.30;4.68;;;9.70;99.90;;;;;;4969296;28;20038;-59
2023/03/31 06:37:47;;;;;;;16.25;4.90;;;9.50;99.90;;;;;;4969625;28;20126;-59
2023/03/31 06:40:13;;;;;;;23.02;5.97;;;9.70;99.90;;;;;;4969794;28;20050;-59
2023/03/31 06:42:39;;;;;;;12.52;5.72;;;9.10;99.90;;;;;;4969324;28;20503;-59
2023/03/31 06:45:05;;;;;;;18.63;5.25;;;9.20;99.90;;;;;;4969703;28;20130;-59
2023/03/31 06:47:31;;;;;;;14.40;6.03;;;9.20;99.90;;;;;;4968660;28;20145;-59
2023/03/31 06:49:56;;;;;;;15.75;5.93;;;9.60;99.90;;;;;;4969144;28;20401;-59
2023/03/31 06:52:22;;;;;;;30.52;7.93;;;9.50;99.90;;;;;;4968701;28;20061;-60
2023/03/31 06:54:47;;;;;;;18.45;7.32;;;9.70;99.90;;;;;;4969655;28;20581;-59
2023/03/31 06:57:13;;;;;;;19.88;7.63;;;9.60;99.90;;;;;;4969449;28;20074;-59
2023/03/31 06:59:39;;;;;;;28.48;8.27;;;9.20;99.90;;;;;;4969664;28;20544;-59
2023/03/31 07:02:05;;;;;;;13.30;7.10;;;9.50;99.90;;;;;;4969458;28;20043;-59
2023/03/31 07:04:31;;;;;;;20.67;7.13;;;9.80;99.90;;;;;;4969445;28;20911;-59
2023/03/31 07:06:58;;;;;;;13.70;6.00;;;9.70;99.90;;;;;;4969322;28;20055;-59
2023/03/31 07:09:23;;;;;;;19.02;6.57;;;9.80;99.90;;;;;;4969156;28;20459;-59
2023/03/31 07:11:49;;;;;;;16.00;6.45;;;9.70;99.90;;;;;;4969392;28;20066;-59
2023/03/31 07:14:15;;;;;;;22.13;6.97;;;9.60;99.90;;;;;;4968449;28;20035;-59
2023/03/31 07:16:40;;;;;;;19.88;6.78;;;9.40;99.90;;;;;;4968652;28;20046;-59
2023/03/31 07:19:09;;;;;;;23.15;6.60;;;9.60;99.90;;;;;;4968557;28;20054;-59
2023/03/31 07:21:35;;;;;;;22.63;6.40;;;9.60;99.90;;;;;;4967975;28;20149;-59
2023/03/31 07:24:01;;;;;;;15.77;5.88;;;9.60;99.90;;;;;;4968623;28;20050;-59
2023/03/31 07:26:27;;;;;;;26.58;6.65;;;9.30;99.90;;;;;;4968506;28;20050;-59
2023/03/31 07:28:55;;;;;;;19.73;6.30;;;9.50;99.90;;;;;;4968676;28;20047;-59
2023/03/31 07:31:21;;;;;;;22.55;6.35;;;9.50;99.90;;;;;;4968662;28;20086;-59
2023/03/31 07:33:47;;;;;;;24.95;7.07;;;9.50;99.90;;;;;;4968524;28;20081;-59
2023/03/31 07:36:13;;;;;;;33.15;8.05;;;9.30;99.90;;;;;;4968839;28;20034;-59
2023/03/31 07:38:40;;;;;;;36.08;7.75;;;9.30;99.90;;;;;;4968306;28;20085;-59
2023/03/31 07:41:10;;;;;;;27.80;6.72;;;9.70;99.90;;;;;;4968447;28;20054;-59
2023/03/31 07:43:36;;;;;;;14.60;6.07;;;9.70;99.90;;;;;;4968124;28;20050;-59
2023/03/31 07:46:02;;;;;;;16.42;6.00;;;9.70;99.90;;;;;;4968493;28;20049;-59
2023/03/31 07:48:28;;;;;;;18.42;5.95;;;9.40;99.90;;;;;;4968169;28;20784;-59
2023/03/31 07:50:54;;;;;;;19.92;6.57;;;9.60;99.90;;;;;;4967835;28;20413;-59
2023/03/31 07:53:20;;;;;;;16.92;5.60;;;9.40;99.90;;;;;;4968119;28;20038;-59
2023/03/31 07:55:47;;;;;;;14.65;6.18;;;9.70;99.90;;;;;;4967756;28;20058;-59
2023/03/31 07:58:12;;;;;;;14.48;5.13;;;9.90;99.90;;;;;;4982616;28;20078;-59
2023/03/31 08:00:38;;;;;;;23.77;7.30;;;9.70;99.90;;;;;;4967505;28;20046;-59
2023/03/31 08:03:04;;;;;;;15.80;6.22;;;9.90;99.90;;;;;;4967542;28;20475;-59
2023/03/31 08:05:30;;;;;;;19.45;7.00;;;9.80;99.90;;;;;;4967203;28;20085;-59
2023/03/31 08:07:56;;;;;;;18.65;7.00;;;10.00;99.90;;;;;;4967384;28;20105;-59
2023/03/31 08:10:24;;;;;;;17.40;7.18;;;9.90;99.90;;;;;;4967473;28;20440;-59
2023/03/31 08:12:50;;;;;;;20.85;6.32;;;9.60;99.90;;;;;;4967741;28;20050;-59
2023/03/31 08:15:17;;;;;;;22.63;6.88;;;9.90;99.90;;;;;;4968359;28;20046;-59
2023/03/31 08:17:43;;;;;;;19.30;6.32;;;9.70;99.90;;;;;;4968424;28;20047;-59
2023/03/31 08:20:09;;;;;;;19.55;6.97;;;11.60;99.90;;;;;;4967491;28;20109;-59
2023/03/31 08:22:39;;;;;;;21.48;5.95;;;10.00;99.90;;;;;;4967377;28;20546;-59
2023/03/31 08:25:07;;;;;;;17.27;6.55;;;10.30;99.90;;;;;;4968237;28;20054;-59
2023/03/31 08:27:37;;;;;;;14.35;5.88;;;9.90;99.90;;;;;;4967423;28;20100;-59
2023/03/31 08:30:08;;;;;;;21.75;6.85;;;10.00;99.90;;;;;;4967835;28;20039;-59
2023/03/31 08:32:34;;;;;;;23.02;7.50;;;10.00;99.90;;;;;;4968085;28;20035;-59
2023/03/31 08:35:00;;;;;;;22.27;7.05;;;10.50;99.90;;;;;;4968165;28;20059;-60
2023/03/31 08:37:30;;;;;;;14.52;5.88;;;10.60;99.90;;;;;;4968302;28;20034;-58
2023/03/31 08:39:56;;;;;;;14.48;6.13;;;10.20;99.90;;;;;;4937891;28;20101;-57
2023/03/31 08:42:48;;;;;;;15.90;6.15;;;10.60;99.90;;;;;;4964852;28;20038;-59
2023/03/31 08:45:20;;;;;;;19.70;6.13;;;10.20;99.90;;;;;;4964182;28;20055;-58
2023/03/31 08:47:51;;;;;;;22.25;6.63;;;10.20;99.90;;;;;;4975834;28;20508;-58
2023/03/31 08:50:21;;;;;;;20.15;6.13;;;10.20;99.90;;;;;;4987073;28;20042;-59
2023/03/31 08:52:55;;;;;;;24.95;7.05;;;10.80;99.90;;;;;;4987548;28;20038;-58
2023/03/31 08:55:31;;;;;;;21.60;6.68;;;10.30;99.90;;;;;;4988261;28;20401;-58
2023/03/31 08:58:14;;;;;;;16.50;5.65;;;10.20;99.90;;;;;;4987826;28;20121;-58
2023/03/31 09:00:49;;;;;;;18.85;6.60;;;10.60;99.90;;;;;;4987279;28;20121;-58
2023/03/31 09:03:34;;;;;;;23.85;7.47;;;10.40;99.90;;;;;;4987705;28;20046;-57
2023/03/31 09:06:10;;;;;;;9.88;4.43;;;10.40;99.90;;;;;;4987027;28;20393;-56
2023/03/31 09:08:38;;;;;;;19.63;5.30;;;10.60;99.90;;;;;;4987567;28;20050;-57
2023/03/31 09:11:24;;;;;;;16.45;5.20;;;10.40;99.90;;;;;;4987986;28;20042;-57
2023/03/31 09:14:12;;;;;;;14.27;4.53;;;10.50;99.90;;;;;;4986613;28;20200;-57
2023/03/31 09:16:49;;;;;;;9.95;4.40;;;11.00;99.90;;;;;;4987515;28;20049;-58
2023/03/31 09:19:22;;;;;;;13.75;4.60;;;10.80;99.90;;;;;;4986276;28;20850;-58
2023/03/31 09:21:52;;;;;;;14.45;4.30;;;10.80;99.90;;;;;;4986418;28;20046;-58
2023/03/31 09:24:31;;;;;;;19.17;5.00;;;10.70;99.90;;;;;;4986355;28;20131;-57
2023/03/31 09:27:02;;;;;;;11.75;4.63;;;10.70;99.90;;;;;;4986531;28;20061;-58
2023/03/31 09:29:59;;;;;;;12.48;4.28;;;10.80;99.90;;;;;;4985295;28;20141;-57
2023/03/31 09:32:28;;;;;;;11.73;3.90;;;10.80;99.90;;;;;;4985905;28;20042;-57
2023/03/31 09:35:18;;;;;;;8.85;3.05;;;10.90;99.90;;;;;;4985593;28;20557;-57
2023/03/31 09:37:44;;;;;;;10.27;3.80;;;10.80;99.90;;;;;;4984999;28;20056;-57
2023/03/31 09:40:16;;;;;;;14.38;3.20;;;10.70;99.90;;;;;;4977220;28;20468;-58
2023/03/31 09:42:42;;;;;;;8.95;3.55;;;10.80;99.90;;;;;;4985305;28;20062;-58
2023/03/31 09:45:19;;;;;;;8.55;2.85;;;10.90;99.90;;;;;;5001200;28;20050;-59
2023/03/31 09:47:50;;;;;;;12.32;2.80;;;10.90;99.90;;;;;;4984292;28;20071;-58
2023/03/31 09:50:16;;;;;;;12.45;2.63;;;10.90;99.90;;;;;;4985367;28;20042;-58
2023/03/31 09:52:57;;;;;;;10.90;3.58;;;10.90;99.90;;;;;;4985550;28;20053;-57
2023/03/31 09:56:00;;;;;;;8.90;2.50;;;10.80;99.90;;;;;;4985800;28;20050;-59
2023/03/31 09:58:26;;;;;;;11.50;2.55;;;10.90;99.90;;;;;;4984278;28;20054;-57
2023/03/31 10:01:07;;;;;;;10.50;2.50;;;10.90;99.90;;;;;;4985321;28;20053;-58
2023/03/31 10:03:46;;;;;;;8.48;2.38;;;11.00;99.90;;;;;;4985823;28;20137;-63
2023/03/31 10:06:15;;;;;;;7.72;2.35;;;11.10;99.90;;;;;;4985491;28;20564;-56
2023/03/31 10:08:46;;;;;;;9.68;2.10;;;11.10;99.90;;;;;;4985673;28;20138;-57
2023/03/31 10:11:13;;;;;;;7.63;1.85;;;11.10;99.90;;;;;;5000580;28;20129;-56
2023/03/31 10:13:57;;;;;;;6.22;1.65;;;11.10;99.90;;;;;;4985969;28;20069;-57
2023/03/31 10:16:41;;;;;;;6.80;2.50;;;11.10;99.90;;;;;;4985775;28;20050;-57
2023/03/31 10:19:26;;;;;;;5.75;2.17;;;11.00;99.90;;;;;;4984872;28;20396;-56
2023/03/31 10:21:58;;;;;;;7.60;2.55;;;10.90;99.90;;;;;;4985143;28;20053;-56
2023/03/31 10:24:25;;;;;;;5.90;1.95;;;11.50;99.90;;;;;;5000206;28;20383;-56
2023/03/31 10:26:56;;;;;;;8.48;2.15;;;11.00;99.90;;;;;;4984914;28;20061;-56
2023/03/31 10:29:33;;;;;;;5.55;1.80;;;11.00;99.90;;;;;;4984599;28;20050;-56
2023/03/31 10:32:04;;;;;;;8.18;1.77;;;11.10;99.90;;;;;;4985414;28;20050;-56
2023/03/31 10:34:30;;;;;;;10.53;2.47;;;11.20;99.90;;;;;;4971045;28;20362;-55
2023/03/31 10:36:57;;;;;;;6.00;2.13;;;;;;;;;;4974616;28;20043;-56
2023/03/31 10:39:30;;;;;;;7.70;2.10;;;11.70;99.90;;;;;;4969051;28;20070;-48
2023/03/31 10:41:56;;;;;;;6.85;2.00;;;11.90;99.90;;;;;;4981471;28;20074;-56
2023/03/31 10:44:38;;;;;;;6.25;2.42;;;12.10;99.90;;;;;;4981654;28;20126;-52
2023/03/31 10:47:24;;;;;;;8.93;2.20;;;12.20;99.90;;;;;;4982910;28;20046;-47
2023/03/31 10:49:56;;;;;;;4.22;2.00;;;12.50;99.90;;;;;;4983457;28;20405;-51
2023/03/31 10:52:26;;;;;;;9.68;2.63;;;12.30;99.90;;;;;;4981945;28;20074;-51
2023/03/31 10:55:01;;;;;;;7.57;2.15;;;12.50;99.90;;;;;;4981771;28;20042;-48
2023/03/31 10:58:00;;;;;;;5.18;1.73;;;12.40;99.90;;;;;;4979506;28;20042;-49
2023/03/31 11:00:48;;;;;;;5.40;2.25;;;12.50;99.90;;;;;;4997435;28;20050;-51
2023/03/31 11:03:58;;;;;;;6.70;2.00;;;12.50;99.90;;;;;;4979876;28;20136;-52
2023/03/31 11:06:49;;;;;;;5.78;2.30;;;12.80;99.90;;;;;;4980651;28;20495;-53
2023/03/31 11:09:42;;;;;;;8.68;2.33;;;12.90;99.90;;;;;;4981327;28;20050;-50
2023/03/31 11:12:16;;;;;;;5.43;2.03;;;13.10;99.90;;;;;;4983322;28;20046;-51
2023/03/31 11:14:47;;;;;;;6.75;2.70;;;13.50;99.90;;;;;;4984047;28;20042;-51
2023/03/31 11:17:31;;;;;;;9.70;2.00;;;13.70;99.90;;;;;;4984141;28;20096;-50
2023/03/31 11:20:06;;;;;;;5.07;1.45;;;13.80;99.90;;;;;;4983900;28;20050;-49
2023/03/31 11:22:47;;;;;;;5.00;1.35;;;13.70;99.90;;;;;;4984340;28;20117;-53
2023/03/31 11:25:38;;;;;;;7.38;2.40;;;13.50;99.90;;;;;;4982525;28;20117;-55
2023/03/31 11:28:21;;;;;;;5.05;1.38;;;13.30;99.90;;;;;;4982404;28;20038;-49
2023/03/31 11:31:15;;;;;;;4.50;1.10;;;13.00;99.90;;;;;;4983741;28;20069;-53
2023/03/31 11:34:06;;;;;;;8.25;1.30;;;12.90;99.90;;;;;;4983403;28;20045;-55
2023/03/31 11:36:58;;;;;;;6.97;1.33;;;12.60;99.90;;;;;;4962740;28;20058;-54
2023/03/31 11:39:34;;;;;;;6.47;1.15;;;12.50;99.90;;;;;;4974009;28;20112;-54
2023/03/31 11:42:26;;;;;;;6.80;1.20;;;12.60;99.90;;;;;;4980546;28;20436;-53
2023/03/31 11:45:01;;;;;;;8.73;1.80;;;12.80;99.90;;;;;;4981521;28;20064;-56
2023/03/31 11:47:33;;;;;;;8.00;1.75;;;13.00;99.90;;;;;;4997700;28;20051;-56
2023/03/31 11:50:15;;;;;;;8.73;1.38;;;13.30;99.90;;;;;;4982893;28;20049;-56
2023/03/31 11:52:52;;;;;;;5.40;1.48;;;13.30;99.90;;;;;;4983229;28;20161;-56
2023/03/31 11:55:20;;;;;;;10.57;1.98;;;13.20;99.90;;;;;;4997363;28;20046;-56
2023/03/31 11:58:04;;;;;;;6.50;1.50;;;13.00;99.90;;;;;;4981294;28;20397;-56
2023/03/31 12:00:43;;;;;;;5.40;1.38;;;13.00;99.90;;;;;;4981974;28;20042;-57
2023/03/31 12:03:18;;;;;;;7.28;1.27;;;13.00;99.90;;;;;;4980884;28;20077;-55
2023/03/31 12:06:01;;;;;;;7.55;1.55;;;13.30;99.90;;;;;;4980568;28;20046;-55
2023/03/31 12:09:03;;;;;;;6.97;1.75;;;13.50;99.90;;;;;;4982878;28;20046;-54
2023/03/31 12:11:52;;;;;;;;;;;13.50;99.90;;;;;;4981598;28;20161;-52
2023/03/31 12:14:27;;;;;;;8.15;2.05;;;13.50;99.90;;;;;;4981392;28;20041;-58
2023/03/31 12:17:08;;;;;;;7.78;2.22;;;13.60;99.90;;;;;;4982214;28;20393;-57
2023/03/31 12:19:47;;;;;;;7.18;1.92;;;13.70;99.90;;;;;;4995868;28;20049;-53
2023/03/31 12:22:37;;;;;;;7.15;1.67;;;13.90;99.90;;;;;;4993784;28;20138;-56
2023/03/31 12:25:04;;;;;;;10.63;2.33;;;14.00;99.90;;;;;;4978572;28;20035;-57
2023/03/31 12:27:41;;;;;;;11.23;2.45;;;14.20;99.90;;;;;;4979189;28;20119;-58
2023/03/31 12:30:15;;;;;;;8.40;2.33;;;14.20;99.90;;;;;;4981575;28;20042;-57
2023/03/31 12:33:05;;;;;;;10.60;2.53;;;14.00;99.90;;;;;;4980929;28;20065;-54
2023/03/31 12:36:03;;;;;;;5.97;1.70;;;13.90;99.90;;;;;;4959978;28;20695;-57
2023/03/31 12:39:01;;;;;;;10.73;2.15;;;13.90;99.90;;;;;;4978285;28;20101;-59
2023/03/31 12:41:51;;;;;;;9.57;2.30;;;13.80;99.90;;;;;;4966446;28;20050;-56
2023/03/31 12:44:33;;;;;;;8.77;2.75;;;13.70;99.90;;;;;;4979308;28;20043;-53
2023/03/31 12:47:20;;;;;;;8.73;2.33;;;13.60;99.90;;;;;;4980334;28;20058;-55
2023/03/31 12:50:08;;;;;;;4.95;1.50;;;13.50;99.90;;;;;;4982057;28;20055;-53
2023/03/31 12:53:15;;;;;;;8.55;1.90;;;13.30;99.90;;;;;;4982504;28;20381;-49
2023/03/31 12:55:50;;;;;;;9.02;1.95;;;13.30;99.90;;;;;;4968987;28;20188;-52
2023/03/31 12:58:33;;;;;;;9.15;1.73;;;13.30;99.90;;;;;;4982148;28;20597;-50
2023/03/31 13:01:05;;;;;;;10.52;2.08;;;13.60;99.90;;;;;;4982864;28;20038;-53
2023/03/31 13:03:52;;;;;;;6.32;1.63;;;13.80;99.90;;;;;;4982556;28;20053;-47
2023/03/31 13:06:27;;;;;;;8.60;1.75;;;13.90;99.90;;;;;;4982651;28;20056;-49
2023/03/31 13:09:10;;;;;;;9.57;2.08;;;14.20;99.90;;;;;;4980132;28;20034;-48
2023/03/31 13:11:39;;;;;;;7.50;1.73;;;14.40;99.90;;;;;;4981793;28;20041;-47
2023/03/31 13:14:25;;;;;;;8.43;1.92;;;14.50;99.90;;;;;;4981686;28;20050;-48
2023/03/31 13:17:09;;;;;;;8.07;1.90;;;14.30;99.90;;;;;;4981304;28;20039;-49